Time;durP1;ratioP1;P1;durP2;ratioP2;P2;SDS_P1;SDS_P2;PMS_P1;PMS_P2;Temp;Humidity;BMP_temperature;BMP_pressure;BME280_temperature;BME280_humidity;BME280_pressure;Samples;Min_cycle;Max_cycle;Signal;HPM_P1;HPM_P2
2022/03/17 00:00:16;;;;;;;20.27;17.50;;;;;;;8.06;100.00;100760.06;5021476;28;20240;-60
2022/03/17 00:02:42;;;;;;;16.47;14.77;;;;;;;8.04;100.00;100761.75;5021111;28;20188;-59
2022/03/17 00:05:09;;;;;;;14.60;13.00;;;;;;;8.03;100.00;100775.50;5020491;28;20202;-63
2022/03/17 00:07:40;;;;;;;13.70;12.33;;;;;;;8.02;100.00;100776.34;5016916;28;20187;-62
2022/03/17 00:10:08;;;;;;;15.27;13.87;;;;;;;7.99;100.00;100778.88;5022533;28;20181;-61
2022/03/17 00:12:33;;;;;;;16.10;14.40;;;;;;;7.94;100.00;100787.41;5020560;28;20190;-60
2022/03/17 00:14:59;;;;;;;13.90;12.60;;;;;;;7.91;100.00;100783.94;5023840;28;20437;-61
2022/03/17 00:17:27;;;;;;;13.60;11.90;;;;;;;7.86;100.00;100789.06;5015986;28;20184;-60
2022/03/17 00:19:53;;;;;;;14.17;12.57;;;;;;;7.84;100.00;100789.91;5020801;28;20184;-61
2022/03/17 00:22:18;;;;;;;13.00;11.50;;;;;;;7.81;100.00;100780.41;5017146;28;20216;-61
2022/03/17 00:24:44;;;;;;;12.73;11.47;;;;;;;7.80;100.00;100770.09;5018487;28;20203;-61
2022/03/17 00:27:10;;;;;;;12.53;11.33;;;;;;;7.76;100.00;100775.22;5021293;28;20270;-62
2022/03/17 00:29:37;;;;;;;12.87;11.57;;;;;;;7.75;100.00;100772.63;5021505;28;20203;-62
2022/03/17 00:32:04;;;;;;;12.47;11.17;;;;;;;7.73;100.00;100766.59;5021037;28;20243;-64
2022/03/17 00:34:29;;;;;;;11.77;10.67;;;;;;;7.71;100.00;100774.31;5020412;28;20193;-60
2022/03/17 00:36:55;;;;;;;12.07;10.63;;;;;;;7.72;100.00;100777.75;5017032;28;20677;-60
2022/03/17 00:39:21;;;;;;;12.07;10.87;;;;;;;7.71;100.00;100770.88;5020108;28;20196;-60
2022/03/17 00:41:47;;;;;;;14.83;13.13;;;;;;;7.71;100.00;100781.19;5022792;28;20222;-62
2022/03/17 00:44:12;;;;;;;14.60;13.07;;;;;;;7.69;100.00;100775.13;5027022;28;20275;-61
2022/03/17 00:46:39;;;;;;;15.93;12.90;;;;;;;7.67;100.00;100781.97;5022519;28;20349;-62
2022/03/17 00:49:05;;;;;;;13.83;12.27;;;;;;;7.63;100.00;100775.94;5023167;28;20759;-60
2022/03/17 00:51:30;;;;;;;12.93;11.57;;;;;;;7.61;100.00;100785.34;5017127;28;20606;-60
2022/03/17 00:53:56;;;;;;;14.17;11.33;;;;;;;7.58;100.00;100787.88;5017946;28;20228;-60
2022/03/17 00:56:22;;;;;;;14.23;11.80;;;;;;;7.56;100.00;100780.16;5017830;28;20272;-64
2022/03/17 00:58:48;;;;;;;13.00;11.53;;;;;;;7.55;100.00;100787.88;5019554;28;20248;-62
2022/03/17 01:01:15;;;;;;;13.93;12.33;;;;;;;7.53;100.00;100779.28;5022344;28;20269;-60
2022/03/17 01:03:42;;;;;;;14.27;11.60;;;;;;;7.53;100.00;100787.00;5018560;28;20647;-60
2022/03/17 01:06:07;;;;;;;13.30;10.90;;;;;;;7.53;100.00;100777.53;5020668;28;20194;-64
2022/03/17 01:08:33;;;;;;;11.80;10.60;;;;;;;7.53;100.00;100785.28;5022813;28;20632;-60
2022/03/17 01:10:58;;;;;;;12.30;11.10;;;;;;;7.52;100.00;100785.25;5026120;28;20201;-61
2022/03/17 01:13:24;;;;;;;12.00;10.83;;;;;;;7.52;100.00;100782.69;5025080;28;20197;-62
2022/03/17 01:15:49;;;;;;;11.47;10.27;;;;;;;7.52;100.00;100786.13;5022920;28;20191;-60
2022/03/17 01:18:14;;;;;;;11.70;10.50;;;;;;;7.54;100.00;100789.56;5026054;28;20249;-60
2022/03/17 01:20:41;;;;;;;11.30;10.13;;;;;;;7.55;100.00;100788.72;5023493;28;20229;-63
2022/03/17 01:23:07;;;;;;;12.30;10.77;;;;;;;7.56;100.00;100794.75;5021758;28;20703;-60
2022/03/17 01:25:32;;;;;;;10.60;9.23;;;;;;;7.59;100.00;100793.06;5024044;28;20194;-61
2022/03/17 01:27:58;;;;;;;11.03;9.93;;;;;;;7.59;100.00;100781.91;5022382;28;20221;-61
2022/03/17 01:30:23;;;;;;;11.10;10.00;;;;;;;7.61;100.00;100790.50;5029917;28;20181;-61
2022/03/17 01:32:49;;;;;;;10.73;9.73;;;;;;;7.59;100.00;100787.94;5022263;28;20202;-62
2022/03/17 01:35:14;;;;;;;13.70;11.13;;;;;;;7.59;100.00;100800.81;5021556;28;20186;-60
2022/03/17 01:37:40;;;;;;;11.73;10.50;;;;;;;7.59;100.00;100794.78;5022705;28;20277;-60
2022/03/17 01:40:07;;;;;;;12.23;11.07;;;;;;;7.59;100.00;100803.38;5025779;28;20603;-60
2022/03/17 01:42:33;;;;;;;11.17;10.07;;;;;;;7.59;100.00;100799.94;5031921;28;20222;-64
2022/03/17 01:44:58;;;;;;;11.80;10.60;;;;;;;7.57;100.00;100799.91;5023733;28;20271;-60
2022/03/17 01:47:26;;;;;;;13.43;11.10;;;;;;;7.56;100.00;100797.34;5028303;28;20187;-59
2022/03/17 01:49:52;;;;;;;11.37;10.17;;;;;;;7.54;100.00;100797.31;5022648;28;20235;-61
2022/03/17 01:52:18;;;;;;;11.83;10.23;;;;;;;7.52;100.00;100801.56;5023488;28;20193;-64
2022/03/17 01:54:44;;;;;;;11.23;9.67;;;;;;;7.52;100.00;100796.41;5023592;28;20253;-60
2022/03/17 01:57:10;;;;;;;10.57;9.47;;;;;;;7.50;100.00;100795.53;5023700;28;20191;-61
2022/03/17 01:59:38;;;;;;;10.47;9.20;;;;;;;7.49;100.00;100796.38;5025661;28;20213;-62
2022/03/17 02:02:08;;;;;;;12.20;10.00;;;;;;;7.51;100.00;100796.41;5019399;28;20206;-60
2022/03/17 02:04:35;;;;;;;11.60;10.40;;;;;;;7.52;100.00;100798.13;5026322;28;20709;-61
2022/03/17 02:07:05;;;;;;;11.67;10.47;;;;;;;7.53;100.00;100797.28;5018344;28;20190;-60
2022/03/17 02:09:35;;;;;;;13.90;10.43;;;;;;;7.55;100.00;100796.47;5026338;28;20210;-60
2022/03/17 02:14:48;;;;;;;12.57;10.60;;;;;;;7.61;100.00;100800.81;5023661;28;20252;-59
2022/03/17 02:17:14;;;;;;;13.00;11.70;;;;;;;7.61;100.00;100799.13;5020249;28;22070;-60
2022/03/17 02:19:40;;;;;;;12.23;10.90;;;;;;;7.63;100.00;100805.16;5021085;28;22390;-59
2022/03/17 02:22:10;;;;;;;11.70;10.60;;;;;;;7.65;100.00;100804.28;5016794;28;20424;-61
2022/03/17 02:27:20;;;;;;;13.83;12.10;;;;;;;7.69;100.00;100798.31;5023191;28;20822;-62
2022/03/17 02:29:46;;;;;;;14.80;12.97;;;;;;;7.71;100.00;100799.22;5024131;28;20203;-59
2022/03/17 02:32:11;;;;;;;14.47;12.97;;;;;;;7.73;100.00;100803.53;5022437;28;20189;-59
2022/03/17 02:34:38;;;;;;;15.07;13.57;;;;;;;7.75;100.00;100809.56;5023706;28;20578;-60
2022/03/17 02:37:03;;;;;;;16.70;13.70;;;;;;;7.75;100.00;100814.72;5022143;28;20190;-61
2022/03/17 02:39:29;;;;;;;17.50;14.77;;;;;;;7.76;100.00;100813.00;5023643;28;20585;-62
2022/03/17 02:41:55;;;;;;;16.40;13.33;;;;;;;7.75;100.00;100819.00;5018431;28;20290;-64
2022/03/17 02:44:21;;;;;;;14.77;13.33;;;;;;;7.76;100.00;100823.31;5025059;28;20221;-59
2022/03/17 02:46:46;;;;;;;15.90;14.10;;;;;;;7.75;100.00;100830.16;5020282;28;20261;-59
2022/03/17 02:49:15;;;;;;;17.70;15.47;;;;;;;7.76;100.00;100828.47;5022969;28;20266;-59
2022/03/17 02:51:41;;;;;;;17.30;14.73;;;;;;;7.76;100.00;100833.63;5024580;28;20637;-62
2022/03/17 02:54:06;;;;;;;18.63;15.90;;;;;;;7.76;100.00;100838.78;5022928;28;20247;-60
2022/03/17 02:56:33;;;;;;;16.77;14.67;;;;;;;7.76;100.00;100837.06;5018306;28;20199;-61
2022/03/17 02:58:58;;;;;;;18.37;16.17;;;;;;;7.77;100.00;100845.66;5018830;28;20305;-62
2022/03/17 03:01:24;;;;;;;18.17;15.60;;;;;;;7.77;100.00;100841.38;5024845;28;20217;-59
2022/03/17 03:03:49;;;;;;;20.80;18.60;;;;;;;7.78;100.00;100843.09;5020699;28;20190;-60
2022/03/17 03:06:15;;;;;;;21.80;19.57;;;;;;;7.81;100.00;100847.41;5021555;28;20224;-61
2022/03/17 03:08:40;;;;;;;21.37;19.07;;;;;;;7.81;100.00;100852.56;5016879;28;20205;-64
2022/03/17 03:11:06;;;;;;;22.43;19.33;;;;;;;7.82;100.00;100853.44;5022895;28;20220;-60
2022/03/17 03:13:31;;;;;;;19.97;17.87;;;;;;;7.80;100.00;100853.41;5022076;28;20433;-61
2022/03/17 03:15:57;;;;;;;19.90;17.13;;;;;;;7.81;100.00;100856.88;5027243;28;20187;-61
2022/03/17 03:18:22;;;;;;;20.30;18.10;;;;;;;7.80;100.00;100858.56;5027462;28;20546;-61
2022/03/17 03:20:47;;;;;;;23.13;20.60;;;;;;;7.81;100.00;100868.03;5021115;28;20292;-60
2022/03/17 03:23:13;;;;;;;21.40;19.20;;;;;;;7.83;100.00;100863.75;5019430;28;20198;-64
2022/03/17 03:25:38;;;;;;;24.13;21.47;;;;;;;7.85;100.00;100867.22;5024068;28;20189;-62
2022/03/17 03:28:06;;;;;;;24.10;21.50;;;;;;;7.86;100.00;100866.38;5020558;28;20217;-60
2022/03/17 03:30:31;;;;;;;27.13;24.23;;;;;;;7.88;100.00;100868.97;5025068;28;20176;-62
2022/03/17 03:32:56;;;;;;;26.43;22.83;;;;;;;7.90;100.00;100875.00;5019777;28;20197;-60
2022/03/17 03:38:06;;;;;;;26.67;23.80;;;;;;;7.92;100.00;100873.31;5023344;28;21024;-60
2022/03/17 03:40:31;;;;;;;27.03;24.03;;;;;;;7.93;100.00;100873.34;5021694;28;20222;-59
2022/03/17 03:42:56;;;;;;;26.97;23.63;;;;;;;7.93;100.00;100875.94;5022900;28;20212;-61
2022/03/17 03:45:22;;;;;;;27.20;24.30;;;;;;;7.94;100.00;100875.03;5022171;28;20382;-61
2022/03/17 03:47:47;;;;;;;27.57;24.17;;;;;;;7.96;100.00;100884.50;5021020;28;20252;-62
2022/03/17 03:50:13;;;;;;;25.90;23.20;;;;;;;7.97;100.00;100892.28;5021264;28;20192;-63
2022/03/17 03:52:38;;;;;;;29.70;25.23;;;;;;;7.97;100.00;100893.97;5016928;28;20200;-63
2022/03/17 03:55:06;;;;;;;28.53;24.57;;;;;;;7.97;100.00;100896.56;5024383;28;20199;-60
2022/03/17 03:57:32;;;;;;;26.50;23.77;;;;;;;7.98;100.00;100894.00;5017341;28;20193;-60
2022/03/17 03:59:57;;;;;;;28.03;24.57;;;;;;;7.99;100.00;100897.44;5022104;28;20201;-60
2022/03/17 04:02:22;;;;;;;28.37;25.00;;;;;;;8.00;100.00;100897.47;5022824;28;20203;-61
2022/03/17 04:04:48;;;;;;;27.83;24.63;;;;;;;8.00;100.00;100899.16;5021039;28;20187;-62
2022/03/17 04:07:13;;;;;;;28.83;25.20;;;;;;;8.00;100.00;100906.91;5019445;28;21195;-63
2022/03/17 04:09:41;;;;;;;28.90;25.80;;;;;;;8.00;100.00;100907.78;5020745;28;20226;-64
2022/03/17 04:12:09;;;;;;;27.80;24.80;;;;;;;8.00;100.00;100900.06;5022554;28;20761;-59
2022/03/17 04:14:35;;;;;;;29.37;26.10;;;;;;;8.01;100.00;100908.63;5025413;28;20181;-61
2022/03/17 04:17:01;;;;;;;28.63;25.53;;;;;;;8.02;100.00;100905.22;5021073;28;20268;-59
2022/03/17 04:19:27;;;;;;;29.60;25.93;;;;;;;8.03;100.00;100907.78;5019766;28;20690;-61
2022/03/17 04:21:53;;;;;;;29.43;25.07;;;;;;;8.04;100.00;100901.78;5026463;28;20236;-60
2022/03/17 04:24:20;;;;;;;29.37;25.60;;;;;;;8.05;100.00;100913.00;5017180;28;20190;-61
2022/03/17 04:26:46;;;;;;;29.13;26.03;;;;;;;8.04;100.00;100904.38;5015836;28;20182;-60
2022/03/17 04:29:13;;;;;;;29.63;25.57;;;;;;;8.05;100.00;100905.25;5020539;28;20282;-60
2022/03/17 04:31:39;;;;;;;30.83;26.87;;;;;;;8.04;100.00;100901.78;5023679;28;20190;-61
2022/03/17 04:34:05;;;;;;;30.90;26.70;;;;;;;8.05;100.00;100907.84;5024412;28;20204;-59
2022/03/17 04:36:31;;;;;;;29.27;25.67;;;;;;;8.06;100.00;100909.56;5023708;28;20184;-59
2022/03/17 04:38:57;;;;;;;30.73;27.43;;;;;;;8.07;100.00;100907.00;5022912;28;20203;-61
2022/03/17 04:41:23;;;;;;;30.27;27.00;;;;;;;8.07;100.00;100903.56;5027607;28;20280;-62
2022/03/17 04:43:48;;;;;;;31.00;27.63;;;;;;;8.08;100.00;100902.72;5024913;28;20195;-63
2022/03/17 04:46:14;;;;;;;34.23;28.67;;;;;;;8.09;100.00;100901.88;5028584;28;20247;-59
2022/03/17 04:48:39;;;;;;;32.37;29.00;;;;;;;8.09;100.00;100904.44;5021166;28;20212;-60
2022/03/17 04:51:06;;;;;;;34.70;28.73;;;;;;;8.11;100.00;100910.47;5021542;28;20200;-60
2022/03/17 04:53:32;;;;;;;31.73;28.33;;;;;;;8.09;100.00;100905.31;5024240;28;20710;-60
2022/03/17 04:56:11;;;;;;;32.10;28.63;;;;;;;8.11;100.00;100902.72;5027318;28;20177;-60
2022/03/17 04:58:40;;;;;;;30.63;27.33;;;;;;;8.10;100.00;100906.16;5017653;28;20683;-61
2022/03/17 05:01:06;;;;;;;31.37;27.93;;;;;;;8.11;100.00;100909.63;5016498;28;20207;-61
2022/03/17 05:03:33;;;;;;;31.83;28.43;;;;;;;8.11;100.00;100910.47;5020323;28;20194;-60
2022/03/17 05:05:59;;;;;;;31.60;28.20;;;;;;;8.11;100.00;100918.19;5014500;28;20187;-61
2022/03/17 05:08:25;;;;;;;30.00;26.80;;;;;;;8.11;100.00;100915.63;5021988;28;20214;-61
2022/03/17 05:10:52;;;;;;;32.20;28.77;;;;;;;8.11;100.00;100923.34;5016314;28;20191;-59
2022/03/17 05:13:19;;;;;;;31.30;27.80;;;;;;;8.11;100.00;100925.09;5019698;28;20848;-62
2022/03/17 05:15:47;;;;;;;32.27;28.70;;;;;;;8.10;100.00;100934.50;5032312;28;20229;-61
2022/03/17 05:18:13;;;;;;;31.77;26.67;;;;;;;8.08;100.00;100931.94;5017103;28;20342;-60
2022/03/17 05:20:42;;;;;;;29.60;25.77;;;;;;;8.07;100.00;100934.50;5020309;28;20374;-63
2022/03/17 05:23:12;;;;;;;30.40;26.33;;;;;;;8.06;100.00;100943.94;5017427;28;20192;-63
2022/03/17 05:25:39;;;;;;;31.80;27.87;;;;;;;8.04;100.00;100943.03;5021151;28;20277;-60
2022/03/17 05:28:06;;;;;;;36.17;30.67;;;;;;;8.00;100.00;100941.28;5022399;28;20738;-60
2022/03/17 05:30:32;;;;;;;36.27;30.60;;;;;;;7.98;100.00;100947.25;5023832;28;20199;-60
2022/03/17 05:32:57;;;;;;;40.23;33.77;;;;;;;7.94;100.00;100954.94;5021336;28;20190;-60
2022/03/17 05:35:23;;;;;;;41.47;34.63;;;;;;;7.89;100.00;100950.56;5022442;28;20193;-63
2022/03/17 05:37:50;;;;;;;37.00;32.20;;;;;;;7.86;100.00;100960.88;5017856;28;20212;-60
2022/03/17 05:40:17;;;;;;;33.00;28.27;;;;;;;7.83;100.00;100964.25;5017797;28;20560;-60
2022/03/17 05:42:52;;;;;;;30.90;27.30;;;;;;;7.80;100.00;100961.63;5022662;28;20640;-63
2022/03/17 05:45:18;;;;;;;32.07;26.17;;;;;;;7.78;100.00;100973.66;5025808;28;20194;-64
2022/03/17 05:47:49;;;;;;;32.77;28.73;;;;;;;7.76;100.00;100968.47;5022382;28;20239;-60
2022/03/17 05:50:17;;;;;;;30.83;26.50;;;;;;;7.75;100.00;100979.63;5026261;28;20578;-59
2022/03/17 05:52:43;;;;;;;32.20;26.93;;;;;;;7.70;100.00;100994.16;5026073;28;20483;-60
2022/03/17 05:55:13;;;;;;;32.27;27.33;;;;;;;7.69;100.00;100996.69;5025593;28;20244;-63
2022/03/17 05:57:40;;;;;;;34.77;27.80;;;;;;;7.69;100.00;101007.00;5024062;28;20229;-59
2022/03/17 06:00:09;;;;;;;33.70;27.70;;;;;;;7.67;100.00;101007.00;5025431;28;20222;-60
2022/03/17 06:02:35;;;;;;;35.80;29.47;;;;;;;7.69;100.00;101012.16;5022487;28;20730;-60
2022/03/17 06:05:02;;;;;;;33.57;28.53;;;;;;;7.71;100.00;101019.09;5019002;28;20223;-59
2022/03/17 06:07:38;;;;;;;33.00;29.40;;;;;;;7.73;100.00;101012.22;5017876;28;20268;-62
2022/03/17 06:10:08;;;;;;;35.80;29.20;;;;;;;7.77;100.00;101014.00;5018036;28;20859;-60
2022/03/17 06:12:34;;;;;;;38.70;34.37;;;;;;;7.80;100.00;101025.19;5023685;28;20244;-60
2022/03/17 06:15:00;;;;;;;38.07;34.07;;;;;;;7.83;100.00;101043.28;5021480;28;20203;-61
2022/03/17 06:17:37;;;;;;;32.97;29.27;;;;;;;7.86;100.00;101035.59;5020160;28;20201;-60
2022/03/17 06:20:03;;;;;;;33.70;30.10;;;;;;;7.89;100.00;101038.19;5021867;28;20189;-61
2022/03/17 06:22:29;;;;;;;33.13;29.57;;;;;;;7.93;100.00;101040.00;5026434;28;20712;-60
2022/03/17 06:24:54;;;;;;;35.33;31.33;;;;;;;7.97;100.00;101046.94;5024948;28;20597;-60
2022/03/17 06:27:19;;;;;;;34.67;31.00;;;;;;;8.00;100.00;101048.66;5023363;28;20198;-59
2022/03/17 06:29:44;;;;;;;33.27;29.70;;;;;;;8.04;100.00;101055.63;5024624;28;20211;-60
2022/03/17 06:32:10;;;;;;;34.63;29.57;;;;;;;8.07;100.00;101059.09;5025062;28;20258;-59
2022/03/17 06:34:35;;;;;;;32.30;28.80;;;;;;;8.12;100.00;101066.88;5023176;28;20214;-58
2022/03/17 06:37:01;;;;;;;33.93;29.67;;;;;;;8.16;100.00;101078.97;5022431;28;20188;-59
2022/03/17 06:39:26;;;;;;;34.50;30.03;;;;;;;8.22;100.00;101085.94;5022764;28;20273;-59
2022/03/17 06:41:51;;;;;;;33.67;29.57;;;;;;;8.26;100.00;101077.41;5022486;28;20237;-59
2022/03/17 06:44:17;;;;;;;33.80;28.77;;;;;;;8.31;100.00;101075.75;5023344;28;20856;-61
2022/03/17 06:46:42;;;;;;;31.57;27.90;;;;;;;8.34;100.00;101082.66;5017374;28;20205;-59
2022/03/17 06:49:08;;;;;;;31.70;27.13;;;;;;;8.39;100.00;101093.91;5016256;28;20267;-60
2022/03/17 06:51:33;;;;;;;32.90;28.20;;;;;;;8.42;100.00;101093.06;5024598;28;20225;-61
2022/03/17 06:53:58;;;;;;;29.60;26.50;;;;;;;8.45;100.00;101095.69;5018966;28;20195;-58
2022/03/17 06:56:24;;;;;;;30.50;26.43;;;;;;;8.48;100.00;101099.22;5025359;28;20186;-60
2022/03/17 06:58:49;;;;;;;28.63;25.53;;;;;;;8.51;100.00;101104.41;5024851;28;20931;-59
2022/03/17 07:01:14;;;;;;;29.43;26.27;;;;;;;8.53;100.00;101101.84;5023418;28;20205;-58
2022/03/17 07:03:39;;;;;;;30.53;27.00;;;;;;;8.57;100.00;101113.94;5027137;28;20196;-61
2022/03/17 07:06:05;;;;;;;31.97;26.90;;;;;;;8.59;100.00;101112.25;5026288;28;20199;-60
2022/03/17 07:08:30;;;;;;;29.93;26.57;;;;;;;8.63;100.00;101106.25;5022242;28;20268;-60
2022/03/17 07:10:56;;;;;;;30.63;26.97;;;;;;;8.67;100.00;101105.44;5022015;28;20558;-60
2022/03/17 07:13:22;;;;;;;30.27;27.00;;;;;;;8.73;100.00;101119.28;5024615;28;20186;-60
2022/03/17 07:15:48;;;;;;;29.93;26.63;;;;;;;8.78;100.00;101110.75;5019743;28;20278;-60
2022/03/17 07:18:14;;;;;;;30.23;27.00;;;;;;;8.84;100.00;101108.25;5024314;28;20217;-62
2022/03/17 07:20:39;;;;;;;31.83;27.70;;;;;;;8.90;100.00;101112.63;5026541;28;20576;-60
2022/03/17 07:23:04;;;;;;;29.67;26.53;;;;;;;8.97;100.00;101100.63;5022972;28;20186;-59
2022/03/17 07:25:30;;;;;;;30.67;27.37;;;;;;;9.05;100.00;101111.03;5022330;28;20191;-58
2022/03/17 07:27:55;;;;;;;31.73;28.43;;;;;;;9.12;100.00;101115.41;5024016;28;20203;-60
2022/03/17 07:30:22;;;;;;;30.90;27.60;;;;;;;9.19;100.00;101116.34;5018332;28;20184;-61
2022/03/17 07:32:52;;;;;;;31.00;27.70;;;;;;;9.27;100.00;101114.72;5020199;28;20274;-61
2022/03/17 07:35:18;;;;;;;31.57;27.90;;;;;;;9.36;100.00;101121.69;5022242;28;20427;-62
2022/03/17 07:37:43;;;;;;;31.40;28.10;;;;;;;9.43;100.00;101118.28;5020630;28;20199;-60
2022/03/17 07:40:09;;;;;;;31.60;28.20;;;;;;;9.52;100.00;101120.09;5024058;28;20604;-60
2022/03/17 07:42:35;;;;;;;34.27;30.67;;;;;;;9.58;100.00;101128.75;5023580;28;20258;-60
2022/03/17 07:45:00;;;;;;;33.23;29.83;;;;;;;9.69;100.00;101128.88;5025626;28;20191;-60
2022/03/17 07:47:26;;;;;;;32.83;29.47;;;;;;;9.76;100.00;101125.47;5020960;28;20713;-61
2022/03/17 07:49:52;;;;;;;31.43;28.23;;;;;;;9.85;100.00;101132.41;5024298;28;20297;-61
2022/03/17 07:52:18;;;;;;;34.00;30.33;;;;;;;9.94;100.00;101138.53;5028451;28;20183;-60
2022/03/17 07:54:45;;;;;;;32.63;29.23;;;;;;;10.02;100.00;101148.06;5027373;28;20592;-61
2022/03/17 07:57:11;;;;;;;32.87;29.47;;;;;;;10.09;100.00;101149.00;5027179;28;20641;-60
2022/03/17 07:59:37;;;;;;;32.27;28.83;;;;;;;10.13;100.00;101147.28;5028921;28;20238;-60
2022/03/17 08:02:03;;;;;;;34.83;31.17;;;;;;;10.18;100.00;101149.03;5024118;28;20257;-61
2022/03/17 08:04:29;;;;;;;38.07;33.97;;;;;;;10.20;100.00;101157.69;5023025;28;20187;-60
2022/03/17 08:06:57;;;;;;;34.83;31.17;;;;;;;10.20;100.00;101155.09;5026553;28;20668;-61
2022/03/17 08:09:23;;;;;;;34.57;30.93;;;;;;;10.24;100.00;101165.47;5026797;28;20583;-63
2022/03/17 08:11:49;;;;;;;32.70;29.10;;;;;;;10.31;100.00;101164.63;5023868;28;20194;-60
2022/03/17 08:14:17;;;;;;;33.30;29.80;;;;;;;10.37;100.00;101167.28;5014986;28;20176;-62
2022/03/17 08:16:46;;;;;;;34.20;30.73;;;;;;;10.41;100.00;101169.06;5025361;28;20194;-61
2022/03/17 08:19:12;;;;;;;33.07;29.40;;;;;;;10.46;100.00;101164.75;5025879;28;20298;-60
2022/03/17 08:21:39;;;;;;;31.60;28.40;;;;;;;10.56;100.00;101175.19;5029227;28;20348;-60
2022/03/17 08:24:05;;;;;;;34.13;30.63;;;;;;;10.65;100.00;101170.03;5036278;28;20190;-62
2022/03/17 08:26:31;;;;;;;32.40;29.00;;;;;;;10.74;100.00;101177.84;5020981;28;20498;-60
2022/03/17 08:28:58;;;;;;;31.77;28.37;;;;;;;10.84;100.00;101168.38;5024366;28;20627;-59
2022/03/17 08:31:24;;;;;;;31.67;28.50;;;;;;;10.93;100.00;101173.63;5027654;28;20270;-60
2022/03/17 08:33:50;;;;;;;33.43;30.00;;;;;;;11.02;100.00;101177.09;5025024;28;20332;-62
2022/03/17 08:36:15;;;;;;;33.60;30.10;;;;;;;11.10;100.00;101180.59;5020000;28;20191;-60
2022/03/17 08:38:41;;;;;;;33.70;30.20;;;;;;;11.20;100.00;101184.03;5020390;28;20207;-60
2022/03/17 08:41:06;;;;;;;31.87;28.63;;;;;;;11.30;100.00;101191.00;5026145;28;20199;-60
2022/03/17 08:43:32;;;;;;;32.03;28.73;;;;;;;11.37;100.00;101189.28;5028292;28;20680;-60
2022/03/17 08:51:26;;;;;;;32.30;29.07;;;;;;;11.55;100.00;101201.41;5020345;28;20226;-61
2022/03/17 08:53:52;;;;;;;31.83;28.53;;;;;;;11.58;100.00;101199.69;5024852;28;20215;-59
2022/03/17 08:56:17;;;;;;;30.63;27.47;;;;;;;11.65;100.00;101204.88;5017595;28;20188;-61
2022/03/17 08:58:43;;;;;;;31.30;28.13;;;;;;;11.70;100.00;101205.78;5018242;28;20219;-59
2022/03/17 09:01:08;;;;;;;31.70;28.50;;;;;;;11.76;100.00;101217.88;5022924;28;20218;-60
2022/03/17 09:03:33;;;;;;;31.47;28.27;;;;;;;11.79;100.00;101213.53;5023149;28;20195;-60
2022/03/17 09:06:00;;;;;;;31.13;27.97;;;;;;;11.83;100.00;101220.47;5024568;28;20267;-61
2022/03/17 09:08:29;;;;;;;30.37;27.37;;;;;;;11.88;100.00;101221.31;5024683;28;20265;-60
2022/03/17 09:10:55;;;;;;;30.33;27.23;;;;;;;11.92;100.00;101222.22;5023105;28;20630;-62
2022/03/17 09:13:22;;;;;;;30.90;27.80;;;;;;;11.97;100.00;101230.00;5023986;28;20557;-60
2022/03/17 09:15:49;;;;;;;31.23;28.10;;;;;;;12.00;100.00;101228.28;5016530;28;20707;-63
2022/03/17 09:18:15;;;;;;;31.10;27.93;;;;;;;12.04;100.00;101232.63;5021300;28;20208;-61
2022/03/17 09:20:41;;;;;;;30.00;27.10;;;;;;;12.07;100.00;101226.56;5013785;28;20640;-62
2022/03/17 09:23:07;;;;;;;30.00;27.10;;;;;;;12.12;100.00;101229.16;5025596;28;20198;-60
2022/03/17 09:25:33;;;;;;;29.97;26.97;;;;;;;12.16;100.00;101238.66;5028298;28;20191;-61
2022/03/17 09:27:58;;;;;;;31.20;27.90;;;;;;;12.19;100.00;101234.34;5022078;28;20304;-60
2022/03/17 09:30:24;;;;;;;28.60;25.60;;;;;;;12.20;100.00;101233.47;5024317;28;20673;-60
2022/03/17 09:32:54;;;;;;;30.30;27.27;;;;;;;12.22;100.00;101241.28;5029481;28;20719;-60
2022/03/17 09:35:20;;;;;;;30.07;27.17;;;;;;;12.23;100.00;101245.59;5022186;28;20185;-62
2022/03/17 09:37:46;;;;;;;29.90;26.83;;;;;;;12.24;100.00;101241.25;5029855;28;20195;-60
2022/03/17 09:40:12;;;;;;;29.77;26.77;;;;;;;12.27;100.00;101241.25;5022223;28;20183;-60
2022/03/17 09:42:38;;;;;;;30.73;27.73;;;;;;;12.29;100.00;101245.56;5027031;28;20211;-59
2022/03/17 09:45:06;;;;;;;29.77;26.67;;;;;;;12.31;100.00;101246.44;5023792;28;20196;-59
2022/03/17 09:47:40;;;;;;;31.20;28.07;;;;;;;12.34;100.00;101248.16;5020309;28;20537;-59
2022/03/17 09:50:07;;;;;;;30.80;27.87;;;;;;;12.38;100.00;101244.72;5023447;28;20559;-59
2022/03/17 09:52:36;;;;;;;29.63;26.73;;;;;;;12.41;100.00;101251.63;5023462;28;20196;-62
2022/03/17 09:55:03;;;;;;;30.90;27.80;;;;;;;12.45;100.00;101249.03;5019448;28;20244;-62
2022/03/17 09:57:29;;;;;;;29.63;26.63;;;;;;;12.51;100.00;101258.53;5022400;28;20198;-60
2022/03/17 09:59:57;;;;;;;36.60;31.27;;;;;;;12.55;100.00;101254.22;5022387;28;20572;-60
2022/03/17 10:02:23;;;;;;;36.30;32.60;;;;;;;12.56;100.00;101264.56;5027302;28;20209;-60
2022/03/17 10:04:49;;;;;;;33.30;29.90;;;;;;;12.63;100.00;101263.72;5021824;28;20220;-60
2022/03/17 10:07:18;;;;;;;32.83;29.53;;;;;;;12.69;100.00;101265.44;5022648;28;20232;-60
2022/03/17 10:09:45;;;;;;;29.90;26.87;;;;;;;12.79;100.00;101280.13;5026448;28;20292;-59
2022/03/17 10:12:14;;;;;;;32.13;29.03;;;;;;;12.90;100.00;101271.47;5021008;28;20212;-60
2022/03/17 10:14:45;;;;;;;31.07;27.97;;;;;;;12.97;100.00;101278.34;5024953;28;20188;-63
2022/03/17 10:17:36;;;;;;;34.40;30.90;;;;;;;12.97;100.00;101278.34;5028066;28;20202;-60
2022/03/17 10:20:17;;;;;;;36.57;32.87;;;;;;;12.97;100.00;101286.16;5023981;28;20271;-60
2022/03/17 10:22:46;;;;;;;36.33;32.60;;;;;;;12.88;100.00;101288.78;5025212;28;20212;-62
2022/03/17 10:25:13;;;;;;;34.30;30.80;;;;;;;12.87;100.00;101287.91;5022917;28;20276;-59
2022/03/17 10:27:41;;;;;;;34.57;31.00;;;;;;;12.83;100.00;101285.31;5024890;28;20193;-60
2022/03/17 10:30:08;;;;;;;35.93;32.07;;;;;;;12.77;100.00;101288.78;5024257;28;20270;-59
2022/03/17 10:32:36;;;;;;;34.33;31.07;;;;;;;12.77;100.00;101283.59;5024708;28;20217;-61
2022/03/17 10:35:01;;;;;;;34.30;31.00;;;;;;;12.80;100.00;101291.38;5019293;28;20209;-59
2022/03/17 10:37:30;;;;;;;32.57;29.37;;;;;;;12.83;100.00;101290.50;5027637;28;20503;-59
2022/03/17 10:39:57;;;;;;;32.53;29.33;;;;;;;12.90;100.00;101294.84;5026596;28;20181;-59
2022/03/17 10:42:28;;;;;;;31.33;28.23;;;;;;;12.98;100.00;101295.66;5022127;28;20400;-59
2022/03/17 10:44:56;;;;;;;31.47;28.37;;;;;;;13.09;100.00;101293.91;5014680;28;20277;-62
2022/03/17 10:47:33;;;;;;;36.97;33.13;;;;;;;13.15;100.00;101306.03;5023613;28;20192;-60
2022/03/17 10:50:02;;;;;;;38.10;34.20;;;;;;;13.15;100.00;101306.03;5020390;28;20206;-61
2022/03/17 10:52:47;;;;;;;33.93;30.50;;;;;;;13.26;100.00;101309.44;5021149;28;20184;-61
2022/03/17 10:55:14;;;;;;;32.83;29.53;;;;;;;13.43;100.00;101305.06;5021436;28;20196;-62
2022/03/17 10:57:40;;;;;;;32.40;29.07;;;;;;;13.60;100.00;101305.84;5020980;28;20728;-60
2022/03/17 11:00:09;;;;;;;32.87;29.57;;;;;;;13.78;100.00;101301.44;5022641;28;20188;-60
2022/03/17 11:02:37;;;;;;;30.87;27.97;;;;;;;13.99;100.00;101303.03;5025294;28;20225;-60
2022/03/17 11:05:06;;;;;;;32.90;29.63;;;;;;;14.14;100.00;101310.72;5024648;28;20188;-60
2022/03/17 11:07:32;;;;;;;34.33;30.83;;;;;;;14.34;99.75;101301.91;5021522;28;20529;-60
2022/03/17 11:10:05;;;;;;;33.47;30.17;;;;;;;14.48;98.95;101306.97;5021860;28;20238;-61
2022/03/17 11:12:31;;;;;;;31.83;28.80;;;;;;;14.65;98.00;101312.06;5016968;28;20278;-60
2022/03/17 11:14:57;;;;;;;31.23;28.37;;;;;;;14.84;97.52;101315.38;5021675;28;20188;-60
2022/03/17 11:17:29;;;;;;;30.77;27.77;;;;;;;15.04;96.46;101317.75;5023048;28;20674;-60